createdAt,value
2018-08-22T00:01:21.212Z,1.87
2018-08-22T00:03:26.088Z,2.10
2018-08-22T00:05:31.107Z,2.30
2018-08-22T00:07:35.971Z,2.27
2018-08-22T00:09:40.937Z,1.93
2018-08-22T00:11:45.964Z,2.57
2018-08-22T00:13:50.820Z,3.57
2018-08-22T00:15:55.765Z,1.93
2018-08-22T00:18:00.719Z,2.37
2018-08-22T00:20:05.485Z,2.20
2018-08-22T00:22:10.361Z,2.13
2018-08-22T00:24:15.153Z,1.80
2018-08-22T00:26:20.151Z,2.17
2018-08-22T00:28:25.111Z,2.20
2018-08-22T00:30:30.117Z,2.27
2018-08-22T00:32:34.913Z,2.30
2018-08-22T00:34:39.697Z,2.33
2018-08-22T00:36:44.696Z,2.27
2018-08-22T00:38:49.604Z,3.50
2018-08-22T00:40:54.549Z,2.47
2018-08-22T00:42:59.685Z,1.60
2018-08-22T00:45:04.963Z,2.10
2018-08-22T00:47:10.114Z,2.10
2018-08-22T00:49:15.253Z,2.20
2018-08-22T00:51:20.372Z,2.00
2018-08-22T00:53:25.317Z,2.60
2018-08-22T00:55:30.104Z,2.83
2018-08-22T00:57:35.084Z,1.97
2018-08-22T00:59:40.421Z,2.23
2018-08-22T01:01:45.405Z,2.30
2018-08-22T01:03:50.518Z,2.40
2018-08-22T01:05:55.641Z,2.13
2018-08-22T01:08:00.543Z,2.13
2018-08-22T01:10:05.993Z,1.97
2018-08-22T01:12:11.016Z,1.50
2018-08-22T01:14:16.110Z,2.10
2018-08-22T01:16:21.193Z,2.20
2018-08-22T01:18:26.193Z,2.17
2018-08-22T01:20:31.202Z,2.50
2018-08-22T01:22:36.345Z,2.00
2018-08-22T01:24:41.160Z,2.20
2018-08-22T01:26:46.552Z,2.80
2018-08-22T01:28:51.512Z,2.40
2018-08-22T01:30:56.829Z,2.50
2018-08-22T01:33:01.905Z,2.30
2018-08-22T01:35:07.095Z,2.33
2018-08-22T01:37:12.164Z,2.50
2018-08-22T01:39:17.034Z,2.40
2018-08-22T01:41:22.288Z,2.33
2018-08-22T01:43:33.618Z,1.90
2018-08-22T01:45:38.751Z,2.60
2018-08-22T01:47:43.766Z,2.80
2018-08-22T01:49:49.131Z,2.40
2018-08-22T01:51:54.133Z,1.97
2018-08-22T01:53:59.104Z,1.90
2018-08-22T01:56:04.527Z,2.27
2018-08-22T01:58:10.273Z,2.73
2018-08-22T02:00:15.415Z,2.03
2018-08-22T02:02:20.257Z,2.43
2018-08-22T02:04:25.346Z,2.40
2018-08-22T02:06:30.201Z,2.30
2018-08-22T02:08:35.295Z,2.60
2018-08-22T02:10:40.703Z,2.17
2018-08-22T02:12:45.511Z,1.77
2018-08-22T02:14:50.374Z,2.63
2018-08-22T02:16:55.245Z,2.30
2018-08-22T02:19:00.259Z,2.23
2018-08-22T02:21:05.573Z,2.10
2018-08-22T02:23:11.247Z,2.47
2018-08-22T02:25:16.191Z,2.27
2018-08-22T02:27:20.989Z,2.00
2018-08-22T02:29:25.952Z,1.90
2018-08-22T02:31:31.398Z,1.60
2018-08-22T02:33:36.396Z,2.47
2018-08-22T02:35:41.528Z,2.17
2018-08-22T02:37:46.469Z,2.00
2018-08-22T02:39:51.583Z,2.17
2018-08-22T02:41:56.540Z,2.10
2018-08-22T02:44:01.647Z,1.90
2018-08-22T02:46:07.242Z,2.67
2018-08-22T02:48:12.177Z,1.83
2018-08-22T02:50:17.912Z,1.83
2018-08-22T02:52:23.299Z,2.03
2018-08-22T02:54:28.306Z,2.10
2018-08-22T02:56:33.234Z,1.60
2018-08-22T02:58:38.336Z,1.73
2018-08-22T03:00:43.325Z,1.50
2018-08-22T03:02:48.204Z,1.97
2018-08-22T03:04:53.369Z,2.23
2018-08-22T03:06:58.233Z,2.03
2018-08-22T03:09:03.393Z,1.73
2018-08-22T03:11:08.227Z,1.90
2018-08-22T03:13:13.218Z,1.97
2018-08-22T03:15:18.054Z,1.57
2018-08-22T03:17:22.946Z,1.83
2018-08-22T03:19:28.400Z,1.77
2018-08-22T03:21:34.880Z,1.70
2018-08-22T03:23:39.687Z,1.87
2018-08-22T03:25:44.838Z,2.00
2018-08-22T03:27:51.923Z,2.10
2018-08-22T03:29:56.946Z,2.17
2018-08-22T03:32:03.912Z,2.43
2018-08-22T03:34:09.745Z,2.10
2018-08-22T03:36:14.877Z,2.03
2018-08-22T03:38:19.849Z,1.50
2018-08-22T03:40:24.909Z,2.10
2018-08-22T03:42:29.880Z,1.70
2018-08-22T03:44:34.851Z,2.00
2018-08-22T03:46:39.877Z,1.70
2018-08-22T03:48:56.792Z,2.10
2018-08-22T03:51:02.052Z,1.83
2018-08-22T03:53:06.989Z,2.07
2018-08-22T03:55:11.937Z,2.43
2018-08-22T03:57:16.737Z,3.00
2018-08-22T03:59:21.502Z,1.40
2018-08-22T04:01:26.693Z,2.10
2018-08-22T04:03:31.664Z,2.80
2018-08-22T04:05:36.809Z,2.00
2018-08-22T04:07:41.706Z,2.17
2018-08-22T04:09:46.769Z,2.37
2018-08-22T04:11:51.842Z,1.77
2018-08-22T04:13:56.665Z,1.60
2018-08-22T04:16:14.405Z,1.60
2018-08-22T04:18:19.287Z,1.63
2018-08-22T04:20:24.382Z,2.20
2018-08-22T04:22:30.942Z,2.30
2018-08-22T04:24:37.722Z,1.70
2018-08-22T04:26:43.755Z,2.33
2018-08-22T04:28:49.790Z,2.57
2018-08-22T04:30:55.315Z,2.40
2018-08-22T04:33:00.619Z,2.00
2018-08-22T04:35:05.900Z,2.33
2018-08-22T04:37:10.872Z,2.20
2018-08-22T04:39:16.069Z,2.00
2018-08-22T04:41:21.366Z,2.20
2018-08-22T04:43:26.436Z,1.90
2018-08-22T04:45:31.301Z,2.50
2018-08-22T04:47:36.470Z,2.30
2018-08-22T04:49:42.167Z,2.60
2018-08-22T04:51:47.773Z,3.30
2018-08-22T04:53:53.053Z,3.47
2018-08-22T04:55:58.724Z,2.40
2018-08-22T04:58:05.073Z,2.90
2018-08-22T05:00:13.261Z,2.20
2018-08-22T05:02:18.830Z,2.80
2018-08-22T05:04:26.130Z,3.20
2018-08-22T05:06:39.076Z,2.63
2018-08-22T05:08:54.103Z,2.77
2018-08-22T05:10:58.987Z,2.80
2018-08-22T05:13:04.081Z,3.13
2018-08-22T05:15:09.459Z,2.97
2018-08-22T05:17:20.033Z,2.67
2018-08-22T05:19:24.827Z,2.50
2018-08-22T05:21:29.637Z,3.33
2018-08-22T05:23:34.749Z,2.10
2018-08-22T05:25:42.486Z,2.83
2018-08-22T05:27:47.556Z,2.57
2018-08-22T05:29:52.844Z,3.20
2018-08-22T05:31:59.048Z,3.00
2018-08-22T05:34:04.228Z,2.93
2018-08-22T05:36:09.294Z,2.90
2018-08-22T05:38:14.486Z,2.87
2018-08-22T05:40:19.480Z,2.40
2018-08-22T05:42:24.631Z,2.70
2018-08-22T05:44:34.789Z,2.63
2018-08-22T05:46:42.382Z,2.77
2018-08-22T05:49:04.736Z,3.13
2018-08-22T05:51:10.348Z,3.27
2018-08-22T05:53:15.532Z,2.77
2018-08-22T05:55:20.595Z,3.13
2018-08-22T05:57:25.604Z,3.60
2018-08-22T05:59:30.730Z,2.77
2018-08-22T06:01:35.616Z,3.50
2018-08-22T06:03:40.603Z,3.03
2018-08-22T06:05:45.980Z,3.37
2018-08-22T06:07:51.311Z,3.87
2018-08-22T06:09:56.320Z,3.10
2018-08-22T06:12:01.145Z,3.33
2018-08-22T06:14:05.967Z,3.03
2018-08-22T06:16:11.115Z,3.53
2018-08-22T06:18:16.015Z,3.10
2018-08-22T06:20:21.051Z,3.60
2018-08-22T06:22:25.857Z,3.27
2018-08-22T06:24:30.817Z,3.43
2018-08-22T06:26:36.213Z,2.93
2018-08-22T06:28:41.285Z,3.70
2018-08-22T06:30:46.924Z,2.73
2018-08-22T06:32:52.036Z,3.03
2018-08-22T06:34:57.207Z,3.13
2018-08-22T06:37:02.195Z,3.07
2018-08-22T06:39:11.034Z,3.37
2018-08-22T06:41:16.958Z,2.90
2018-08-22T06:43:21.991Z,2.57
2018-08-22T06:45:27.146Z,2.60
2018-08-22T06:47:32.244Z,2.57
2018-08-22T06:49:37.386Z,2.87
2018-08-22T06:51:42.789Z,2.50
2018-08-22T06:53:49.553Z,2.87
2018-08-22T06:55:54.769Z,2.77
2018-08-22T06:58:00.841Z,2.50
2018-08-22T07:00:07.925Z,3.60
2018-08-22T07:02:13.257Z,2.77
2018-08-22T07:04:18.207Z,2.70
2018-08-22T07:06:23.136Z,2.90
2018-08-22T07:08:29.908Z,2.80
2018-08-22T07:10:36.119Z,2.83
2018-08-22T07:12:42.235Z,3.63
2018-08-22T07:14:48.149Z,3.37
2018-08-22T07:16:53.302Z,4.17
2018-08-22T07:18:58.734Z,3.40
2018-08-22T07:21:04.319Z,2.90
2018-08-22T07:23:09.607Z,3.33
2018-08-22T07:25:15.395Z,3.40
2018-08-22T07:27:22.520Z,3.43
2018-08-22T07:29:27.933Z,3.33
2018-08-22T07:31:33.447Z,4.17
2018-08-22T07:33:38.678Z,3.60
2018-08-22T07:35:45.021Z,3.93
2018-08-22T07:37:50.301Z,4.40
2018-08-22T07:39:55.257Z,3.70
2018-08-22T07:42:00.395Z,3.93
2018-08-22T07:44:05.954Z,3.10
2018-08-22T07:46:11.076Z,3.30
2018-08-22T07:48:16.216Z,3.90
2018-08-22T07:50:21.396Z,2.93
2018-08-22T07:52:26.794Z,3.90
2018-08-22T07:54:50.916Z,3.80
2018-08-22T07:56:56.000Z,3.60
2018-08-22T07:59:20.592Z,3.33
2018-08-22T08:01:25.370Z,3.53
2018-08-22T08:03:30.576Z,3.80
2018-08-22T08:05:35.479Z,3.80
2018-08-22T08:07:40.364Z,4.37
2018-08-22T08:09:45.188Z,4.43
2018-08-22T08:11:50.012Z,4.60
2018-08-22T08:13:54.778Z,5.20
2018-08-22T08:15:59.926Z,5.07
2018-08-22T08:18:04.909Z,4.80
2018-08-22T08:20:09.964Z,4.47
2018-08-22T08:22:14.805Z,4.80
2018-08-22T08:24:19.751Z,4.27
2018-08-22T08:26:25.003Z,4.20
2018-08-22T08:28:30.333Z,4.53
2018-08-22T08:30:35.220Z,5.03
2018-08-22T08:32:40.219Z,4.70
2018-08-22T08:34:45.470Z,5.10
2018-08-22T08:36:50.690Z,4.90
2018-08-22T08:38:55.783Z,5.40
2018-08-22T08:41:00.803Z,5.50
2018-08-22T08:43:05.739Z,5.10
2018-08-22T08:45:11.793Z,5.53
2018-08-22T08:47:16.808Z,6.27
2018-08-22T08:49:21.905Z,5.50
2018-08-22T08:51:27.474Z,6.10
2018-08-22T08:53:32.821Z,6.30
2018-08-22T08:55:38.208Z,7.40
2018-08-22T08:57:43.183Z,6.60
2018-08-22T08:59:48.339Z,6.47
2018-08-22T09:01:53.307Z,6.37
2018-08-22T09:03:59.177Z,7.53
2018-08-22T09:06:04.264Z,6.97
2018-08-22T09:08:09.231Z,6.90
2018-08-22T09:10:14.196Z,6.10
2018-08-22T09:12:19.473Z,6.80
2018-08-22T09:14:24.427Z,5.80
2018-08-22T09:16:29.387Z,5.40
2018-08-22T09:18:34.516Z,6.20
2018-08-22T09:20:40.166Z,5.67
2018-08-22T09:22:45.365Z,5.20
2018-08-22T09:24:50.527Z,5.93
2018-08-22T09:26:55.517Z,6.13
2018-08-22T09:29:00.571Z,6.50
2018-08-22T09:31:05.558Z,7.00
2018-08-22T09:33:10.623Z,7.07
2018-08-22T09:35:16.055Z,6.80
2018-08-22T09:37:21.250Z,6.97
2018-08-22T09:39:41.104Z,6.30
2018-08-22T09:41:46.299Z,5.63
2018-08-22T09:43:51.274Z,5.93
2018-08-22T09:45:56.081Z,5.93
2018-08-22T09:48:01.008Z,6.23
2018-08-22T09:50:06.287Z,6.90
2018-08-22T09:52:11.308Z,6.93
2018-08-22T09:54:16.361Z,6.40
2018-08-22T09:56:21.589Z,7.87
2018-08-22T09:58:26.444Z,7.80
2018-08-22T10:00:36.218Z,7.70
2018-08-22T10:02:41.245Z,9.77
2018-08-22T10:04:46.414Z,9.30
2018-08-22T10:06:51.883Z,9.40
2018-08-22T10:08:58.467Z,7.87
2018-08-22T10:11:03.581Z,9.80
2018-08-22T10:13:08.554Z,10.37
2018-08-22T10:15:13.726Z,8.67
2018-08-22T10:17:19.142Z,6.27
2018-08-22T10:19:23.992Z,7.70
2018-08-22T10:21:29.062Z,8.80
2018-08-22T10:23:34.138Z,8.00
2018-08-22T10:25:39.314Z,8.33
2018-08-22T10:27:44.510Z,9.30
2018-08-22T10:29:49.771Z,9.30
2018-08-22T10:31:54.642Z,9.23
2018-08-22T10:33:59.766Z,9.30
2018-08-22T10:36:05.087Z,10.87
2018-08-22T10:38:09.878Z,8.43
2018-08-22T10:40:14.848Z,9.77
2018-08-22T10:42:20.110Z,10.10
2018-08-22T10:44:25.216Z,10.70
2018-08-22T10:46:30.340Z,9.53
2018-08-22T10:48:40.155Z,10.00
2018-08-22T10:50:45.253Z,8.70
2018-08-22T10:52:50.132Z,9.07
2018-08-22T10:54:55.204Z,7.30
2018-08-22T10:57:00.346Z,9.30
2018-08-22T10:59:05.284Z,8.87
2018-08-22T11:01:10.221Z,10.47
2018-08-22T11:03:15.427Z,8.93
2018-08-22T11:05:20.641Z,8.97
2018-08-22T11:07:25.879Z,10.80
2018-08-22T11:09:31.447Z,11.30
2018-08-22T11:11:36.600Z,10.30
2018-08-22T11:13:42.006Z,14.87
2018-08-22T11:15:47.205Z,12.90
2018-08-22T11:17:52.436Z,12.77
2018-08-22T11:19:57.536Z,10.27
2018-08-22T11:22:19.037Z,12.50
2018-08-22T11:24:40.353Z,12.30
2018-08-22T11:27:01.924Z,10.47
2018-08-22T11:29:23.356Z,15.17
2018-08-22T11:31:44.867Z,12.13
2018-08-22T11:34:06.363Z,11.47
2018-08-22T11:36:09.399Z,9.37
2018-08-22T11:38:14.597Z,9.27
2018-08-22T11:40:19.814Z,10.20
2018-08-22T11:42:24.737Z,8.40
2018-08-22T11:44:30.171Z,8.70
2018-08-22T11:46:35.209Z,11.13
2018-08-22T11:48:40.254Z,13.53
2018-08-22T11:50:45.604Z,11.93
2018-08-22T11:52:50.686Z,13.60
2018-08-22T11:54:56.513Z,9.43
2018-08-22T11:57:02.117Z,8.80
2018-08-22T11:59:07.051Z,10.77
2018-08-22T12:01:12.215Z,9.37
2018-08-22T12:03:17.344Z,7.20
2018-08-22T12:05:22.319Z,11.80
2018-08-22T12:07:28.500Z,8.67
2018-08-22T12:09:33.495Z,8.10
2018-08-22T12:11:38.520Z,8.20
2018-08-22T12:13:43.598Z,9.00
2018-08-22T12:16:05.157Z,9.03
2018-08-22T12:18:10.099Z,8.60
2018-08-22T12:20:14.951Z,8.90
2018-08-22T12:22:20.071Z,10.60
2018-08-22T12:24:25.088Z,8.90
2018-08-22T12:26:30.042Z,10.80
2018-08-22T12:28:36.421Z,12.10
2018-08-22T12:30:41.785Z,12.27
2018-08-22T12:32:46.908Z,9.20
2018-08-22T12:34:52.211Z,11.37
2018-08-22T12:36:57.343Z,10.20
2018-08-22T12:39:02.543Z,10.37
2018-08-22T12:41:08.621Z,10.00
2018-08-22T12:43:13.659Z,8.67
2018-08-22T12:45:18.794Z,9.47
2018-08-22T12:47:23.727Z,9.20
2018-08-22T12:49:28.729Z,10.77
2018-08-22T12:51:34.027Z,9.73
2018-08-22T12:53:39.330Z,9.30
2018-08-22T12:55:44.380Z,7.83
2018-08-22T12:57:49.346Z,7.70
2018-08-22T12:59:54.372Z,6.60
2018-08-22T13:01:59.484Z,8.20
2018-08-22T13:04:04.655Z,8.53
2018-08-22T13:06:09.576Z,8.03
2018-08-22T13:08:14.783Z,6.80
2018-08-22T13:10:20.431Z,7.60
2018-08-22T13:12:25.399Z,8.37
2018-08-22T13:14:30.462Z,8.87
2018-08-22T13:16:35.465Z,7.90
2018-08-22T13:18:40.802Z,8.67
2018-08-22T13:20:45.920Z,9.10
2018-08-22T13:22:50.983Z,7.63
2018-08-22T13:24:56.167Z,7.77
2018-08-22T13:27:01.242Z,6.90
2018-08-22T13:29:06.570Z,7.20
2018-08-22T13:31:11.964Z,7.67
2018-08-22T13:33:16.816Z,10.50
2018-08-22T13:35:22.961Z,7.17
2018-08-22T13:37:29.003Z,7.93
2018-08-22T13:39:34.193Z,7.50
2018-08-22T13:41:40.461Z,6.97
2018-08-22T13:43:45.595Z,6.40
2018-08-22T13:45:50.689Z,8.27
2018-08-22T13:47:55.952Z,7.80
2018-08-22T13:50:00.998Z,8.60
2018-08-22T13:52:06.103Z,8.10
2018-08-22T13:54:11.480Z,8.67
2018-08-22T13:56:17.244Z,7.20
2018-08-22T14:00:37.824Z,7.23
2018-08-22T14:02:42.738Z,6.33
2018-08-22T14:04:47.532Z,7.47
2018-08-22T14:06:52.668Z,9.37
2018-08-22T14:08:57.753Z,10.60
2018-08-22T14:11:02.673Z,9.00
2018-08-22T14:13:08.737Z,9.50
2018-08-22T14:15:13.606Z,7.50
2018-08-22T14:17:18.553Z,7.13
2018-08-22T14:19:23.655Z,6.93
2018-08-22T14:21:28.729Z,8.50
2018-08-22T14:23:33.590Z,8.87
2018-08-22T14:25:38.610Z,8.40
2018-08-22T14:27:43.776Z,9.07
2018-08-22T14:29:48.939Z,8.90
2018-08-22T14:31:53.784Z,7.40
2018-08-22T14:33:58.685Z,7.30
2018-08-22T14:36:03.446Z,9.90
2018-08-22T14:38:08.455Z,9.43
2018-08-22T14:40:13.542Z,9.70
2018-08-22T14:42:18.340Z,9.40
2018-08-22T14:44:23.107Z,8.93
2018-08-22T14:46:28.263Z,11.87
2018-08-22T14:48:33.116Z,9.77
2018-08-22T14:50:38.312Z,11.77
2018-08-22T14:52:43.857Z,10.10
2018-08-22T14:54:48.641Z,12.37
2018-08-22T14:56:53.604Z,13.77
2018-08-22T14:58:58.658Z,11.33
2018-08-22T15:01:03.695Z,12.27
2018-08-22T15:03:08.953Z,13.10
2018-08-22T15:05:14.919Z,12.80
2018-08-22T15:07:19.821Z,7.70
2018-08-22T15:09:25.017Z,11.47
2018-08-22T15:11:30.434Z,11.77
2018-08-22T15:13:36.859Z,11.10
2018-08-22T15:15:42.908Z,10.97
2018-08-22T15:17:48.001Z,11.90
2018-08-22T15:19:52.839Z,11.03
2018-08-22T15:21:58.002Z,13.27
2018-08-22T15:24:03.255Z,10.40
2018-08-22T15:26:08.496Z,9.87
2018-08-22T15:28:13.388Z,12.23
2018-08-22T15:30:18.617Z,12.70
2018-08-22T15:32:24.894Z,12.77
2018-08-22T15:34:47.031Z,10.83
2018-08-22T15:36:52.323Z,10.37
2018-08-22T15:38:57.640Z,11.70
2018-08-22T15:41:02.878Z,11.20
2018-08-22T15:43:08.365Z,12.17
2018-08-22T15:45:13.550Z,11.30
2018-08-22T15:47:19.175Z,11.57
2018-08-22T15:49:24.321Z,8.10
2018-08-22T15:51:29.612Z,10.00
2018-08-22T15:53:34.902Z,10.93
2018-08-22T15:55:40.217Z,12.77
2018-08-22T15:58:06.329Z,12.50
2018-08-22T16:00:11.387Z,11.20
2018-08-22T16:02:16.420Z,11.70
2018-08-22T16:04:21.343Z,9.27
2018-08-22T16:06:26.353Z,10.10
2018-08-22T16:08:31.589Z,9.47
2018-08-22T16:10:39.307Z,12.63
2018-08-22T16:12:44.506Z,10.93
2018-08-22T16:14:49.647Z,12.90
2018-08-22T16:16:54.935Z,11.33
2018-08-22T16:19:00.068Z,11.33
2018-08-22T16:21:07.702Z,13.07
2018-08-22T16:23:12.692Z,11.40
2018-08-22T16:25:17.759Z,11.53
2018-08-22T16:27:22.851Z,10.70
2018-08-22T16:29:28.034Z,11.27
2018-08-22T16:31:51.005Z,9.97
2018-08-22T16:33:56.144Z,8.90
2018-08-22T16:36:01.040Z,9.63
2018-08-22T16:38:10.354Z,10.80
2018-08-22T16:40:15.758Z,10.30
2018-08-22T16:42:24.942Z,9.47
2018-08-22T16:44:30.079Z,9.47
2018-08-22T16:46:35.133Z,9.67
2018-08-22T16:48:41.868Z,9.90
2018-08-22T16:50:47.208Z,9.90
2018-08-22T16:52:52.233Z,9.13
2018-08-22T16:55:15.123Z,9.27
2018-08-22T16:57:20.748Z,9.30
2018-08-22T16:59:26.043Z,9.87
2018-08-22T17:01:31.766Z,10.17
2018-08-22T17:03:36.945Z,9.57
2018-08-22T17:05:42.202Z,9.80
2018-08-22T17:07:47.294Z,9.17
2018-08-22T17:09:52.430Z,10.20
2018-08-22T17:11:57.497Z,10.77
2018-08-22T17:14:02.490Z,9.17
2018-08-22T17:16:07.638Z,11.63
2018-08-22T17:18:13.043Z,11.00
2018-08-22T17:20:18.148Z,9.10
2018-08-22T17:22:23.015Z,11.57
2018-08-22T17:24:28.223Z,10.60
2018-08-22T17:26:33.139Z,11.30
2018-08-22T17:28:38.875Z,9.90
2018-08-22T17:30:44.322Z,9.37
2018-08-22T17:32:49.249Z,9.20
2018-08-22T17:34:57.953Z,10.10
2018-08-22T17:37:08.589Z,10.50
2018-08-22T17:39:14.154Z,10.90
2018-08-22T17:41:21.805Z,10.90
2018-08-22T17:43:26.942Z,10.33
2018-08-22T17:45:39.338Z,9.20
2018-08-22T17:47:45.844Z,9.73
2018-08-22T17:50:04.859Z,9.57
2018-08-22T17:52:11.049Z,9.93
2018-08-22T17:54:16.548Z,9.20
2018-08-22T17:56:24.375Z,10.30
2018-08-22T17:58:29.585Z,9.33
2018-08-22T18:00:37.119Z,9.70
2018-08-22T18:02:41.927Z,9.20
2018-08-22T18:04:54.077Z,8.77
2018-08-22T18:06:59.945Z,10.33
2018-08-22T18:09:05.399Z,9.40
2018-08-22T18:11:13.046Z,9.27
2018-08-22T18:13:18.411Z,10.83
2018-08-22T18:15:23.712Z,10.33
2018-08-22T18:17:28.789Z,9.57
2018-08-22T18:19:34.493Z,9.80
2018-08-22T18:21:44.604Z,10.17
2018-08-22T18:23:55.605Z,10.60
2018-08-22T18:26:01.973Z,9.20
2018-08-22T18:28:07.817Z,11.17
2018-08-22T18:30:13.338Z,10.70
2018-08-22T18:32:19.028Z,9.57
2018-08-22T18:34:24.454Z,9.40
2018-08-22T18:36:30.946Z,9.93
2018-08-22T18:38:36.707Z,10.00
2018-08-22T18:40:43.475Z,9.17
2018-08-22T18:42:57.581Z,8.90
2018-08-22T18:45:04.958Z,8.40
2018-08-22T18:47:10.705Z,9.47
2018-08-22T18:49:19.691Z,9.40
2018-08-22T18:51:25.253Z,8.90
2018-08-22T18:53:31.265Z,9.37
2018-08-22T18:55:39.689Z,10.40
2018-08-22T18:57:48.942Z,10.83
2018-08-22T18:59:54.737Z,10.00
2018-08-22T19:02:03.218Z,10.70
2018-08-22T19:04:08.488Z,10.30
2018-08-22T19:06:15.303Z,10.83
2018-08-22T19:08:24.806Z,11.50
2018-08-22T19:10:53.441Z,12.53
2018-08-22T19:13:24.065Z,11.83
2018-08-22T19:15:49.628Z,10.70
2018-08-22T19:18:17.045Z,12.20
2018-08-22T19:20:40.155Z,11.57
2018-08-22T19:22:55.347Z,12.77
2018-08-22T19:25:15.846Z,14.27
2018-08-22T19:27:29.906Z,15.17
2018-08-22T19:29:48.009Z,14.37
2018-08-22T19:32:27.435Z,16.50
2018-08-22T19:35:18.541Z,17.00
2018-08-22T19:37:49.129Z,18.30
2018-08-22T19:40:21.282Z,19.40
2018-08-22T19:42:42.024Z,18.57
2018-08-22T19:45:27.196Z,17.40
2018-08-22T19:47:57.192Z,18.90
2018-08-22T19:50:28.978Z,17.90
2018-08-22T19:52:55.467Z,16.93
2018-08-22T19:55:29.819Z,16.10
2018-08-22T19:58:14.093Z,17.27
2018-08-22T20:03:36.900Z,17.07
2018-08-22T20:06:13.936Z,16.67
2018-08-22T20:08:39.940Z,16.37
2018-08-22T20:11:01.639Z,16.57
2018-08-22T20:14:41.695Z,19.03
2018-08-22T20:17:20.668Z,17.17
2018-08-22T20:19:29.226Z,18.37
2018-08-22T20:21:37.157Z,16.77
2018-08-22T20:23:42.346Z,18.30
2018-08-22T20:25:49.032Z,18.37
2018-08-22T20:27:54.762Z,18.37
2018-08-22T20:33:28.878Z,16.93
2018-08-22T20:35:47.522Z,20.00
2018-08-22T20:38:28.830Z,18.47
2018-08-22T20:41:07.484Z,19.00
2018-08-22T20:43:42.842Z,19.20
2018-08-22T20:46:08.821Z,19.10
2018-08-22T20:48:16.427Z,17.67
2018-08-22T20:50:37.761Z,18.10
2018-08-22T20:53:05.175Z,17.03
2018-08-22T20:55:33.324Z,17.80
2018-08-22T20:57:38.808Z,19.17
2018-08-22T20:59:43.903Z,18.30
2018-08-22T21:02:19.656Z,16.90
2018-08-22T21:04:55.605Z,16.27
2018-08-22T21:07:51.388Z,16.63
2018-08-22T21:10:32.840Z,18.30
2018-08-22T21:13:07.967Z,17.83
2018-08-22T21:15:50.423Z,16.87
2018-08-22T21:18:07.516Z,16.40
2018-08-22T21:20:30.894Z,16.53
2018-08-22T21:22:36.449Z,17.07
2018-08-22T21:24:57.612Z,15.50
2018-08-22T21:27:12.881Z,15.60
2018-08-22T21:29:18.086Z,17.07
2018-08-22T21:31:23.178Z,18.00
2018-08-22T21:33:29.180Z,15.20
2018-08-22T21:35:34.481Z,17.87
2018-08-22T21:37:39.638Z,15.97
2018-08-22T21:39:45.857Z,18.23
2018-08-22T21:41:54.925Z,16.70
2018-08-22T21:44:00.059Z,17.67
2018-08-22T21:46:06.525Z,16.37
2018-08-22T21:48:22.025Z,17.00
2018-08-22T21:50:27.272Z,17.10
2018-08-22T21:52:55.071Z,17.00
2018-08-22T21:55:00.807Z,17.50
2018-08-22T21:57:06.638Z,18.10
2018-08-22T21:59:12.483Z,19.77
2018-08-22T22:01:18.310Z,18.10
2018-08-22T22:03:28.819Z,17.47
2018-08-22T22:05:50.579Z,18.67
2018-08-22T22:10:11.652Z,18.80
2018-08-22T22:12:21.663Z,18.57
2018-08-22T22:14:27.661Z,16.70
2018-08-22T22:16:33.267Z,18.30
2018-08-22T22:18:38.661Z,17.53
2018-08-22T22:20:51.612Z,18.93
2018-08-22T22:22:57.948Z,20.10
2018-08-22T22:25:03.283Z,18.23
2018-08-22T22:27:10.014Z,19.90
2018-08-22T22:29:15.052Z,20.07
2018-08-22T22:31:19.933Z,17.53
2018-08-22T22:33:24.923Z,16.40
2018-08-22T22:35:34.767Z,17.60
2018-08-22T22:37:39.981Z,19.20
2018-08-22T22:39:46.433Z,19.20
2018-08-22T22:41:51.646Z,19.37
2018-08-22T22:43:56.885Z,18.07
2018-08-22T22:46:01.830Z,18.70
2018-08-22T22:48:07.078Z,19.03
2018-08-22T22:50:12.173Z,17.37
2018-08-22T22:52:27.148Z,20.30
2018-08-22T22:54:36.624Z,18.17
2018-08-22T22:56:41.931Z,19.43
2018-08-22T22:58:48.229Z,20.40
2018-08-22T23:00:53.817Z,18.20
2018-08-22T23:03:04.497Z,18.47
2018-08-22T23:05:10.167Z,18.40
2018-08-22T23:07:25.166Z,18.40
2018-08-22T23:09:34.832Z,20.10
2018-08-22T23:11:39.953Z,18.90
2018-08-22T23:13:45.223Z,19.30
2018-08-22T23:15:50.314Z,20.13
2018-08-22T23:17:58.203Z,18.77
2018-08-22T23:20:19.356Z,21.33
2018-08-22T23:22:24.374Z,19.57
2018-08-22T23:24:30.165Z,19.70
2018-08-22T23:26:35.531Z,20.60
2018-08-22T23:28:40.639Z,18.93
2018-08-22T23:30:48.487Z,20.80
2018-08-22T23:33:02.184Z,20.00
2018-08-22T23:35:24.681Z,18.90
2018-08-22T23:37:29.838Z,21.17
2018-08-22T23:39:34.987Z,20.47
2018-08-22T23:41:39.929Z,19.20
2018-08-22T23:43:50.164Z,22.20
2018-08-22T23:45:57.230Z,20.77
2018-08-22T23:48:02.142Z,21.40
2018-08-22T23:50:07.272Z,21.50
2018-08-22T23:52:12.219Z,23.37
2018-08-22T23:54:17.255Z,21.70
2018-08-22T23:56:24.038Z,21.20
2018-08-22T23:58:28.966Z,22.43
